Bogota, Colombia

12:48 PM COT on October 25, 2014 (GMT -0500)
Campin | Change Station
CLOSE
Current Station
Personal Weather Station
Location: Bogota, DC
Elevation: 8369 ft
Nearby Weather Stations

Elev 8369 ft 4.65 °N, 74.08 °W | Updated 15 seconds ago

Scattered Clouds
Scattered Clouds
69.6 °F
Feels Like 69.6 °F
N
1.2
Wind Variable Wind from WNW
Gusts 5.4 mph

Today
High -- | Low -- °F
--% Chance of Precip.
Yesterday
High -- | Low -- °F
Precip. -- in
5:41 AM 5:39 PM
Waxing Crescent, 4% visible
Pressure 30.32 in
Visibility 6.2 miles
Clouds Scattered Clouds 2000 ft
Scattered Clouds 9000 ft
Dew Point 52 °F
Humidity 54%
Rainfall 0.20 in
Snow Depth Not available.
UV 15 out of 12
Pollen Not available.
Air Quality Not available.
Flu Activity Not available.
METAR SKBO 251700Z 29011KT 9999 SCT020 SCT090 18/11 A3032

More Conditions Fewer Conditions

Pressure 30.32 in
Visibility 6.2 miles
Clouds Scattered Clouds 2000 ft
Scattered Clouds 9000 ft
Dew Point 52 °F
Humidity 54%
Rainfall 0.20 in
Snow Depth Not available.
UV 15 out of 12
Pollen Not available.
Air Quality Not available.
Flu Activity Not available.
METAR SKBO 251700Z 29011KT 9999 SCT020 SCT090 18/11 A3032

More Conditions Fewer Conditions

10-Day Weather Forecast

Almanac

Astronomy

Oct. 25, 2014 Rise Set
Actual Time 5:41 AM COT 5:39 PM COT
Civil Twilight 5:20 AM COT 6:01 PM COT
Nautical Twilight 4:55 AM COT 6:25 PM COT
Astronomical Twilight 4:30 AM COT 6:50 PM COT
Moon 7:03 AM COT 7:17 PM COT
Length of Visible Light 12h 41m
Length of Day
11h 58m
Tomorrow will be 0m 13s shorter.
Waxing Crescent, 4% of the Moon is Illuminated
Today
Waxing Crescent
Oct 30
First Quarter
Nov 6
Full
Nov 14
Last Quarter
Nov 22
New

Today's Extremes

Country Highs Country Lows

Community

WunderPhotos

Upload Photos

1,764,919 photos uploaded!

Nearby

Snow Depth

Not available.

Earthquake Activity

City Distance Mag. Time & Date
No recent earthquake activity has been reported nearby.
Minimum magnitude displayed is 2.5.

Coastal Water Temperatures

Place Temperature
No Stations Reporting

Nearby Weather Stations